RYR69D EBCI-LDZA
Flight info
| Callsign | RYR69D |
|---|---|
| Flight time | N/A |
| Altitude | 37000 |
| Route | RITAX M624 DIK M150 PITES DCT KRH DCT UTABA L607 MOMUK DCT UMVEG DCT GOLVA DCT MIRSO DCT PETOV |
| Aircraft | A320/M-SDE3FGHIRWY/LB1 |
Departure
| Time | N/A |
|---|---|
| Airport | Brussels South Charleroi Airport (EBCI) |
Arrival
| Time | 2026-04-27 11:20 |
|---|---|
| Airport | Zagreb Franjo Tuđman International Airport (LDZA) |
| Time | Latitude | Longitude | Altitude | Speed | Heading |
|---|---|---|---|---|---|
| 2026-04-27 10:33 | 47.65370 | 10.57195 | 37217 ft | 473 kts | 114° |
| 2026-04-27 10:33 | 47.63943 | 10.61578 | 37209 ft | 473 kts | 114° |
| 2026-04-27 10:33 | 47.61076 | 10.70362 | 37202 ft | 472 kts | 114° |
| 2026-04-27 10:34 | 47.58208 | 10.79128 | 37203 ft | 472 kts | 114° |
| 2026-04-27 10:34 | 47.55338 | 10.87863 | 37190 ft | 472 kts | 114° |
| 2026-04-27 10:35 | 47.52457 | 10.96594 | 37197 ft | 472 kts | 115° |
| 2026-04-27 10:35 | 47.49573 | 11.05308 | 37200 ft | 472 kts | 114° |
| 2026-04-27 10:36 | 47.46701 | 11.13971 | 37180 ft | 472 kts | 115° |
| 2026-04-27 10:36 | 47.43809 | 11.22663 | 37184 ft | 471 kts | 115° |
| 2026-04-27 10:37 | 47.40896 | 11.31360 | 37179 ft | 471 kts | 115° |
| 2026-04-27 10:37 | 47.37989 | 11.40034 | 37177 ft | 472 kts | 115° |
| 2026-04-27 10:38 | 47.35075 | 11.48705 | 37173 ft | 471 kts | 115° |
| 2026-04-27 10:38 | 47.32174 | 11.57297 | 37185 ft | 471 kts | 115° |
| 2026-04-27 10:39 | 47.29246 | 11.65915 | 37177 ft | 471 kts | 115° |
| 2026-04-27 10:39 | 47.26316 | 11.74552 | 37176 ft | 471 kts | 115° |
| 2026-04-27 10:40 | 47.23375 | 11.83178 | 37179 ft | 471 kts | 115° |
| 2026-04-27 10:40 | 47.20939 | 11.92060 | 37179 ft | 468 kts | 101° |
| 2026-04-27 10:41 | 47.19773 | 12.01488 | 37174 ft | 467 kts | 97° |
| 2026-04-27 10:41 | 47.18675 | 12.10852 | 37177 ft | 468 kts | 97° |
| 2026-04-27 10:42 | 47.17562 | 12.20281 | 37176 ft | 468 kts | 97° |
| 2026-04-27 10:42 | 47.16431 | 12.29722 | 37183 ft | 468 kts | 97° |
| 2026-04-27 10:43 | 47.15303 | 12.39101 | 37187 ft | 469 kts | 97° |
| 2026-04-27 10:43 | 47.14157 | 12.48531 | 37192 ft | 468 kts | 98° |
| 2026-04-27 10:44 | 47.12999 | 12.57946 | 37185 ft | 469 kts | 98° |
| 2026-04-27 10:44 | 47.11840 | 12.67376 | 37178 ft | 469 kts | 98° |
| 2026-04-27 10:45 | 47.10677 | 12.76785 | 37177 ft | 468 kts | 98° |
| 2026-04-27 10:45 | 47.09503 | 12.86197 | 37182 ft | 468 kts | 98° |
| 2026-04-27 10:46 | 47.08321 | 12.95592 | 37173 ft | 468 kts | 98° |
| 2026-04-27 10:46 | 47.07138 | 13.04928 | 37169 ft | 468 kts | 98° |
| 2026-04-27 10:47 | 47.05936 | 13.14312 | 37166 ft | 468 kts | 98° |
| 2026-04-27 10:47 | 47.04729 | 13.23706 | 37173 ft | 469 kts | 98° |
| 2026-04-27 10:48 | 47.03524 | 13.33087 | 37182 ft | 469 kts | 98° |
| 2026-04-27 10:48 | 47.02298 | 13.42485 | 37183 ft | 468 kts | 98° |
| 2026-04-27 10:49 | 47.01068 | 13.51854 | 37183 ft | 468 kts | 98° |
| 2026-04-27 10:49 | 46.99832 | 13.61216 | 37183 ft | 468 kts | 98° |
| 2026-04-27 10:50 | 46.98598 | 13.70532 | 37191 ft | 468 kts | 98° |
| 2026-04-27 10:50 | 46.97348 | 13.79893 | 37191 ft | 468 kts | 98° |
| 2026-04-27 10:51 | 46.96105 | 13.89180 | 37190 ft | 468 kts | 98° |
| 2026-04-27 10:51 | 46.94839 | 13.98525 | 37191 ft | 468 kts | 99° |
| 2026-04-27 10:52 | 46.93562 | 14.07862 | 37198 ft | 468 kts | 98° |
| 2026-04-27 10:52 | 46.92278 | 14.17202 | 37202 ft | 468 kts | 99° |
| 2026-04-27 10:53 | 46.90350 | 14.31176 | 37196 ft | 467 kts | 99° |
| 2026-04-27 10:54 | 46.89051 | 14.40481 | 37191 ft | 467 kts | 99° |
| 2026-04-27 10:54 | 46.87744 | 14.49793 | 37201 ft | 467 kts | 99° |
| 2026-04-27 10:55 | 46.86438 | 14.59074 | 37204 ft | 467 kts | 99° |
| 2026-04-27 10:55 | 46.85123 | 14.68360 | 37206 ft | 467 kts | 99° |
| 2026-04-27 10:56 | 46.83796 | 14.77641 | 37208 ft | 467 kts | 99° |
| 2026-04-27 10:56 | 46.82469 | 14.86859 | 37226 ft | 467 kts | 99° |
| 2026-04-27 10:57 | 46.81125 | 14.96129 | 37217 ft | 467 kts | 99° |
| 2026-04-27 10:57 | 46.79999 | 15.03886 | 37218 ft | 466 kts | 99° |
| 2026-04-27 10:58 | 46.78434 | 15.14644 | 37223 ft | 466 kts | 99° |
| 2026-04-27 10:58 | 46.77296 | 15.22397 | 37239 ft | 466 kts | 99° |
| 2026-04-27 10:59 | 46.75920 | 15.31643 | 37237 ft | 466 kts | 99° |
| 2026-04-27 10:59 | 46.74541 | 15.40879 | 37234 ft | 466 kts | 99° |
| 2026-04-27 11:00 | 46.72416 | 15.54730 | 37216 ft | 468 kts | 104° |
| 2026-04-27 11:00 | 46.71280 | 15.59200 | 36580 ft | 474 kts | 113° |
| 2026-04-27 11:00 | 46.69577 | 15.63366 | 35625 ft | 482 kts | 125° |
| 2026-04-27 11:01 | 46.67393 | 15.66992 | 34737 ft | 485 kts | 135° |
| 2026-04-27 11:01 | 46.64743 | 15.70111 | 33728 ft | 490 kts | 145° |
| 2026-04-27 11:01 | 46.61805 | 15.72626 | 32705 ft | 492 kts | 150° |
| 2026-04-27 11:01 | 46.58808 | 15.75064 | 31598 ft | 495 kts | 150° |
| 2026-04-27 11:02 | 46.55798 | 15.77516 | 30490 ft | 498 kts | 150° |
| 2026-04-27 11:02 | 46.52771 | 15.79978 | 29672 ft | 493 kts | 150° |
| 2026-04-27 11:02 | 46.49797 | 15.82397 | 28927 ft | 487 kts | 150° |
| 2026-04-27 11:02 | 46.46861 | 15.84784 | 28178 ft | 481 kts | 150° |
| 2026-04-27 11:03 | 46.43965 | 15.87131 | 27474 ft | 475 kts | 150° |
| 2026-04-27 11:03 | 46.41088 | 15.89455 | 26772 ft | 470 kts | 150° |
| 2026-04-27 11:03 | 46.38275 | 15.91723 | 26097 ft | 465 kts | 150° |
| 2026-04-27 11:03 | 46.35453 | 15.94001 | 25411 ft | 461 kts | 150° |
| 2026-04-27 11:04 | 46.32664 | 15.96253 | 24733 ft | 457 kts | 151° |
| 2026-04-27 11:04 | 46.29896 | 15.98477 | 24065 ft | 454 kts | 151° |
| 2026-04-27 11:04 | 46.27135 | 16.00663 | 23319 ft | 451 kts | 152° |
| 2026-04-27 11:04 | 46.24388 | 16.02807 | 22679 ft | 445 kts | 152° |
| 2026-04-27 11:05 | 46.21683 | 16.04903 | 22091 ft | 439 kts | 152° |
| 2026-04-27 11:05 | 46.19004 | 16.06975 | 21503 ft | 434 kts | 152° |
| 2026-04-27 11:05 | 46.16363 | 16.09018 | 20948 ft | 428 kts | 152° |
| 2026-04-27 11:05 | 46.13757 | 16.11040 | 20412 ft | 424 kts | 153° |
| 2026-04-27 11:06 | 46.11173 | 16.13046 | 19871 ft | 419 kts | 153° |
| 2026-04-27 11:06 | 46.08612 | 16.15034 | 19332 ft | 416 kts | 154° |
| 2026-04-27 11:06 | 46.05939 | 16.16552 | 18770 ft | 410 kts | 169° |
| 2026-04-27 11:06 | 46.03164 | 16.16957 | 18188 ft | 403 kts | 185° |
| 2026-04-27 11:07 | 46.00448 | 16.16260 | 17636 ft | 393 kts | 201° |
| 2026-04-27 11:07 | 45.98013 | 16.14597 | 17072 ft | 384 kts | 216° |
| 2026-04-27 11:07 | 45.96005 | 16.12138 | 16519 ft | 376 kts | 229° |
| 2026-04-27 11:07 | 45.94227 | 16.09398 | 15967 ft | 373 kts | 229° |
| 2026-04-27 11:08 | 45.92466 | 16.06695 | 15427 ft | 369 kts | 229° |
| 2026-04-27 11:08 | 45.90717 | 16.04020 | 14872 ft | 366 kts | 229° |
| 2026-04-27 11:08 | 45.88978 | 16.01371 | 14322 ft | 363 kts | 229° |
| 2026-04-27 11:08 | 45.87247 | 15.98740 | 13738 ft | 361 kts | 228° |
| 2026-04-27 11:09 | 45.85532 | 15.96137 | 13140 ft | 357 kts | 228° |
| 2026-04-27 11:09 | 45.83835 | 15.93561 | 12574 ft | 354 kts | 228° |
| 2026-04-27 11:09 | 45.82165 | 15.91027 | 12316 ft | 342 kts | 228° |
| 2026-04-27 11:09 | 45.80566 | 15.88604 | 12190 ft | 327 kts | 228° |
| 2026-04-27 11:10 | 45.79036 | 15.86286 | 12053 ft | 314 kts | 228° |
| 2026-04-27 11:10 | 45.77561 | 15.84056 | 11929 ft | 302 kts | 228° |
| 2026-04-27 11:10 | 45.76140 | 15.81913 | 11728 ft | 293 kts | 228° |
| 2026-04-27 11:10 | 45.74750 | 15.79814 | 11479 ft | 289 kts | 228° |
| 2026-04-27 11:11 | 45.73363 | 15.77721 | 11081 ft | 289 kts | 228° |
| 2026-04-27 11:11 | 45.71995 | 15.75657 | 10690 ft | 288 kts | 228° |
| 2026-04-27 11:11 | 45.70612 | 15.73571 | 10295 ft | 288 kts | 228° |
| 2026-04-27 11:11 | 45.69240 | 15.71507 | 9941 ft | 285 kts | 228° |
| 2026-04-27 11:12 | 45.67878 | 15.69458 | 9540 ft | 283 kts | 228° |
| 2026-04-27 11:12 | 45.66520 | 15.67426 | 9158 ft | 281 kts | 226° |
| 2026-04-27 11:12 | 45.64895 | 15.65915 | 8756 ft | 282 kts | 200° |
| 2026-04-27 11:12 | 45.62950 | 15.65674 | 8352 ft | 286 kts | 172° |
| 2026-04-27 11:13 | 45.61140 | 15.66820 | 7913 ft | 287 kts | 144° |
| 2026-04-27 11:13 | 45.59651 | 15.68714 | 7168 ft | 287 kts | 139° |
| 2026-04-27 11:13 | 45.58200 | 15.70681 | 6444 ft | 286 kts | 138° |
| 2026-04-27 11:13 | 45.56782 | 15.72635 | 5727 ft | 282 kts | 137° |
| 2026-04-27 11:14 | 45.55675 | 15.74915 | 5005 ft | 282 kts | 109° |
| 2026-04-27 11:14 | 45.55601 | 15.77606 | 4660 ft | 265 kts | 76° |
| 2026-04-27 11:14 | 45.56410 | 15.79831 | 4515 ft | 244 kts | 50° |
| 2026-04-27 11:14 | 45.57517 | 15.81524 | 4403 ft | 224 kts | 47° |
| 2026-04-27 11:15 | 45.58566 | 15.83084 | 4321 ft | 212 kts | 48° |
| 2026-04-27 11:15 | 45.59539 | 15.84545 | 4226 ft | 197 kts | 47° |
| 2026-04-27 11:15 | 45.60476 | 15.85957 | 3993 ft | 196 kts | 49° |
| 2026-04-27 11:15 | 45.61400 | 15.87352 | 3741 ft | 189 kts | 48° |
| 2026-04-27 11:16 | 45.62286 | 15.88689 | 3509 ft | 186 kts | 50° |
| 2026-04-27 11:16 | 45.63181 | 15.90041 | 3241 ft | 187 kts | 47° |
| 2026-04-27 11:16 | 45.64057 | 15.91362 | 2995 ft | 181 kts | 49° |
| 2026-04-27 11:16 | 45.64909 | 15.92650 | 2777 ft | 175 kts | 49° |
| 2026-04-27 11:17 | 45.65729 | 15.93891 | 2526 ft | 168 kts | 48° |
| 2026-04-27 11:17 | 45.66499 | 15.95055 | 2319 ft | 155 kts | 47° |
| 2026-04-27 11:17 | 45.67233 | 15.96166 | 2100 ft | 151 kts | 48° |
| 2026-04-27 11:17 | 45.67928 | 15.97217 | 1902 ft | 139 kts | 48° |
| 2026-04-27 11:18 | 45.68573 | 15.98194 | 1741 ft | 132 kts | 49° |
| 2026-04-27 11:18 | 45.69208 | 15.99157 | 1562 ft | 133 kts | 49° |
| 2026-04-27 11:18 | 45.69841 | 16.00118 | 1374 ft | 133 kts | 49° |
| 2026-04-27 11:18 | 45.70467 | 16.01062 | 1158 ft | 131 kts | 47° |
| 2026-04-27 11:19 | 45.71097 | 16.02015 | 1032 ft | 131 kts | 48° |
| 2026-04-27 11:19 | 45.71721 | 16.02964 | 847 ft | 130 kts | 47° |
| 2026-04-27 11:19 | 45.72339 | 16.03905 | 644 ft | 129 kts | 47° |
| 2026-04-27 11:19 | 45.72953 | 16.04836 | 499 ft | 131 kts | 47° |
| 2026-04-27 11:20 | 45.73565 | 16.05767 | 364 ft | 120 kts | 47° |
| 2026-04-27 11:20 | 45.74015 | 16.06454 | 361 ft | 69 kts | 47° |
| 2026-04-27 11:20 | 45.74227 | 16.06782 | 359 ft | 20 kts | 47° |
| 2026-04-27 11:20 | 45.74303 | 16.06899 | 359 ft | 35 kts | 47° |
| 2026-04-27 11:21 | 45.74495 | 16.07200 | 361 ft | 40 kts | 45° |
| 2026-04-27 11:21 | 45.74677 | 16.07465 | 364 ft | 24 kts | 51° |
| 2026-04-27 11:21 | 45.74665 | 16.07531 | 362 ft | 7 kts | 135° |
| 2026-04-27 11:21 | 45.74619 | 16.07592 | 358 ft | 10 kts | 137° |
| 2026-04-27 11:22 | 45.74575 | 16.07652 | 359 ft | 8 kts | 136° |
| 2026-04-27 11:22 | 45.74523 | 16.07722 | 359 ft | 16 kts | 136° |
| 2026-04-27 11:22 | 45.74434 | 16.07842 | 359 ft | 19 kts | 136° |
| 2026-04-27 11:22 | 45.74325 | 16.07866 | 362 ft | 18 kts | 218° |
| 2026-04-27 11:23 | 45.74242 | 16.07737 | 363 ft | 17 kts | 228° |
| 2026-04-27 11:23 | 45.74163 | 16.07624 | 361 ft | 15 kts | 226° |
| 2026-04-27 11:23 | 45.74093 | 16.07524 | 362 ft | 11 kts | 210° |
| 2026-04-27 11:23 | 45.74054 | 16.07562 | 361 ft | 7 kts | 136° |
| 2026-04-27 11:24 | 45.74038 | 16.07582 | 358 ft | 2 kts | 141° |
| 2026-04-27 11:24 | 45.74037 | 16.07584 | 358 ft | 2 kts | 141° |
| 2026-04-27 11:24 | 45.74027 | 16.07588 | 359 ft | 0 kts | 168° |
| 2026-04-27 11:24 | 45.74013 | 16.07596 | 361 ft | 0 kts | 146° |
| 2026-04-27 11:25 | 45.74009 | 16.07595 | 361 ft | 4 kts | 177° |
| 2026-04-27 11:25 | 45.73988 | 16.07540 | 362 ft | 4 kts | 302° |
| 2026-04-27 11:25 | 45.74033 | 16.07565 | 367 ft | 3 kts | 106° |
| 2026-04-27 11:25 | 45.74023 | 16.07579 | 363 ft | 2 kts | 139° |
| 2026-04-27 11:26 | 45.74012 | 16.07593 | 362 ft | 0 kts | 138° |